sensor_id;sensor_type;location;lat;lon;timestamp;pressure;altitude;pressure_sealevel;temperature;humidity
55410;BME280;41279;43.546;16.426;2022-08-11T00:01:20;52862.81;;;-146.77;45.03
55410;BME280;41279;43.546;16.426;2022-08-11T00:03:58;52870.81;;;-146.77;44.98
55410;BME280;41279;43.546;16.426;2022-08-11T00:06:28;52844.78;;;-146.77;44.98
55410;BME280;41279;43.546;16.426;2022-08-11T00:08:54;52834.78;;;-146.77;44.70
55410;BME280;41279;43.546;16.426;2022-08-11T00:11:21;52862.81;;;-146.77;44.97
55410;BME280;41279;43.546;16.426;2022-08-11T00:13:56;52850.78;;;-146.77;44.93
55410;BME280;41279;43.546;16.426;2022-08-11T00:16:23;52866.81;;;-146.77;44.81
55410;BME280;41279;43.546;16.426;2022-08-11T00:18:54;52842.78;;;-146.77;44.96
55410;BME280;41279;43.546;16.426;2022-08-11T00:21:21;52858.78;;;-146.77;44.73
55410;BME280;41279;43.546;16.426;2022-08-11T00:23:54;52812.75;;;-146.77;44.71
55410;BME280;41279;43.546;16.426;2022-08-11T00:26:20;52854.78;;;-146.77;44.61
55410;BME280;41279;43.546;16.426;2022-08-11T00:28:46;52866.81;;;-146.77;44.76
55410;BME280;41279;43.546;16.426;2022-08-11T00:31:31;52846.78;;;-146.77;43.97
55410;BME280;41279;43.546;16.426;2022-08-11T00:33:59;52854.78;;;-146.77;43.97
55410;BME280;41279;43.546;16.426;2022-08-11T00:36:28;52888.84;;;-146.77;44.17
55410;BME280;41279;43.546;16.426;2022-08-11T00:39:02;52880.81;;;-146.77;43.87
55410;BME280;41279;43.546;16.426;2022-08-11T00:41:37;52878.81;;;-146.77;43.95
55410;BME280;41279;43.546;16.426;2022-08-11T00:44:27;52866.81;;;-146.77;44.18
55410;BME280;41279;43.546;16.426;2022-08-11T00:46:56;52878.81;;;-146.77;43.84
55410;BME280;41279;43.546;16.426;2022-08-11T00:49:51;52852.78;;;-146.77;43.66
55410;BME280;41279;43.546;16.426;2022-08-11T01:09:11;52870.81;;;-146.77;43.84
55410;BME280;41279;43.546;16.426;2022-08-11T01:11:55;52866.81;;;-146.77;43.79
55410;BME280;41279;43.546;16.426;2022-08-11T01:23:13;52850.78;;;-146.77;43.45
55410;BME280;41279;43.546;16.426;2022-08-11T01:46:20;52830.75;;;-146.77;42.52
55410;BME280;41279;43.546;16.426;2022-08-11T01:54:23;52870.81;;;-146.77;42.62
55410;BME280;41279;43.546;16.426;2022-08-11T01:57:52;52854.78;;;-146.77;42.75
55410;BME280;41279;43.546;16.426;2022-08-11T02:05:41;52856.78;;;-146.77;42.63
55410;BME280;41279;43.546;16.426;2022-08-11T02:08:33;52864.81;;;-146.77;42.80
55410;BME280;41279;43.546;16.426;2022-08-11T02:11:17;52842.78;;;-146.77;42.61
55410;BME280;41279;43.546;16.426;2022-08-11T02:22:06;52838.78;;;-146.77;42.86
55410;BME280;41279;43.546;16.426;2022-08-11T02:25:05;52858.78;;;-146.77;43.26
55410;BME280;41279;43.546;16.426;2022-08-11T02:28:06;52814.75;;;-146.77;43.39
55410;BME280;41279;43.546;16.426;2022-08-11T02:30:41;52814.75;;;-146.77;43.08
55410;BME280;41279;43.546;16.426;2022-08-11T02:33:32;52842.78;;;-146.77;42.91
55410;BME280;41279;43.546;16.426;2022-08-11T02:36:16;52852.78;;;-146.77;42.89
55410;BME280;41279;43.546;16.426;2022-08-11T02:44:38;52852.78;;;-146.77;43.60
55410;BME280;41279;43.546;16.426;2022-08-11T02:53:21;52812.75;;;-146.77;43.50
55410;BME280;41279;43.546;16.426;2022-08-11T02:56:00;52818.75;;;-146.77;43.64
55410;BME280;41279;43.546;16.426;2022-08-11T03:01:22;52810.75;;;-146.77;42.98
55410;BME280;41279;43.546;16.426;2022-08-11T03:03:59;52822.75;;;-146.77;43.28
55410;BME280;41279;43.546;16.426;2022-08-11T03:06:38;52830.75;;;-146.77;43.49
55410;BME280;41279;43.546;16.426;2022-08-11T03:11:58;52828.75;;;-146.77;44.06
55410;BME280;41279;43.546;16.426;2022-08-11T03:23:10;52824.75;;;-146.77;44.35
55410;BME280;41279;43.546;16.426;2022-08-11T03:25:50;52814.75;;;-146.77;44.18
55410;BME280;41279;43.546;16.426;2022-08-11T03:28:52;52790.72;;;-146.77;44.44
55410;BME280;41279;43.546;16.426;2022-08-11T03:31:28;52798.72;;;-146.77;44.63
55410;BME280;41279;43.546;16.426;2022-08-11T03:34:06;52798.72;;;-146.77;45.06
55410;BME280;41279;43.546;16.426;2022-08-11T03:37:05;52812.75;;;-146.77;44.74
55410;BME280;41279;43.546;16.426;2022-08-11T03:39:58;52826.75;;;-146.77;44.68
55410;BME280;41279;43.546;16.426;2022-08-11T03:43:01;52816.75;;;-146.77;44.79
55410;BME280;41279;43.546;16.426;2022-08-11T03:45:34;52788.72;;;-146.77;44.79
55410;BME280;41279;43.546;16.426;2022-08-11T03:48:24;52814.75;;;-146.77;44.62
55410;BME280;41279;43.546;16.426;2022-08-11T03:56:32;52806.75;;;-146.77;44.87
55410;BME280;41279;43.546;16.426;2022-08-11T04:05:13;52808.75;;;-146.77;45.04
55410;BME280;41279;43.546;16.426;2022-08-11T04:14:03;52798.72;;;-146.77;45.04
55410;BME280;41279;43.546;16.426;2022-08-11T04:16:59;52842.78;;;-146.77;45.46
55410;BME280;41279;43.546;16.426;2022-08-11T04:27:40;52808.75;;;-146.77;45.43
55410;BME280;41279;43.546;16.426;2022-08-11T04:36:36;52800.72;;;-146.77;45.41
55410;BME280;41279;43.546;16.426;2022-08-11T04:39:38;52740.66;;;-146.77;45.05
55410;BME280;41279;43.546;16.426;2022-08-11T04:54:31;52800.72;;;-146.77;44.89
55410;BME280;41279;43.546;16.426;2022-08-11T05:00:31;52788.72;;;-146.77;44.09
55410;BME280;41279;43.546;16.426;2022-08-11T05:07:06;52786.72;;;-146.77;44.07
55410;BME280;41279;43.546;16.426;2022-08-11T05:12:28;52814.75;;;-146.77;42.35
55410;BME280;41279;43.546;16.426;2022-08-11T05:14:55;52822.75;;;-146.77;43.00
55410;BME280;41279;43.546;16.426;2022-08-11T05:20:44;52772.69;;;-146.77;43.00
55410;BME280;41279;43.546;16.426;2022-08-11T05:23:31;52750.69;;;-146.77;41.07
55410;BME280;41279;43.546;16.426;2022-08-11T05:26:18;52782.72;;;-146.77;40.73
55410;BME280;41279;43.546;16.426;2022-08-11T05:29:24;52778.72;;;-146.77;40.82
55410;BME280;41279;43.546;16.426;2022-08-11T05:32:12;52782.72;;;-146.77;40.56
55410;BME280;41279;43.546;16.426;2022-08-11T05:35:01;52784.72;;;-146.77;40.03
55410;BME280;41279;43.546;16.426;2022-08-11T05:40:00;52820.75;;;-146.77;41.01
55410;BME280;41279;43.546;16.426;2022-08-11T05:42:49;52796.72;;;-146.77;41.42
55410;BME280;41279;43.546;16.426;2022-08-11T05:45:36;52818.75;;;-146.77;41.46
55410;BME280;41279;43.546;16.426;2022-08-11T05:48:20;52786.72;;;-146.77;40.52
55410;BME280;41279;43.546;16.426;2022-08-11T05:51:05;52810.75;;;-146.77;39.40
55410;BME280;41279;43.546;16.426;2022-08-11T05:53:58;52840.78;;;-146.77;40.12
55410;BME280;41279;43.546;16.426;2022-08-11T05:56:48;52830.75;;;-146.77;39.61
55410;BME280;41279;43.546;16.426;2022-08-11T05:59:16;52798.72;;;-146.77;39.41
55410;BME280;41279;43.546;16.426;2022-08-11T06:01:43;52812.75;;;-146.77;38.81
55410;BME280;41279;43.546;16.426;2022-08-11T06:04:16;52866.81;;;-146.77;38.54
55410;BME280;41279;43.546;16.426;2022-08-11T06:06:53;52812.75;;;-146.77;38.71
55410;BME280;41279;43.546;16.426;2022-08-11T06:09:46;52814.75;;;-146.77;38.18
55410;BME280;41279;43.546;16.426;2022-08-11T06:12:27;52848.78;;;-146.77;37.98
55410;BME280;41279;43.546;16.426;2022-08-11T06:14:56;52816.75;;;-146.77;38.26
55410;BME280;41279;43.546;16.426;2022-08-11T06:17:27;52832.75;;;-146.77;37.49
55410;BME280;41279;43.546;16.426;2022-08-11T06:19:59;52834.78;;;-146.77;37.48
55410;BME280;41279;43.546;16.426;2022-08-11T06:22:26;52810.75;;;-146.77;37.79
55410;BME280;41279;43.546;16.426;2022-08-11T06:24:59;52826.75;;;-146.77;37.48
55410;BME280;41279;43.546;16.426;2022-08-11T06:27:29;52834.78;;;-146.77;37.14
55410;BME280;41279;43.546;16.426;2022-08-11T06:29:56;52788.72;;;-146.77;37.36
55410;BME280;41279;43.546;16.426;2022-08-11T06:32:24;52824.75;;;-146.77;37.15
55410;BME280;41279;43.546;16.426;2022-08-11T06:37:43;52850.78;;;-146.77;36.50
55410;BME280;41279;43.546;16.426;2022-08-11T06:43:18;52874.81;;;-146.77;36.23
55410;BME280;41279;43.546;16.426;2022-08-11T06:48:21;52866.81;;;-146.77;36.20
55410;BME280;41279;43.546;16.426;2022-08-11T06:50:49;52880.81;;;-146.77;35.84
55410;BME280;41279;43.546;16.426;2022-08-11T06:53:34;52866.81;;;-146.77;36.04
55410;BME280;41279;43.546;16.426;2022-08-11T06:56:03;52876.81;;;-146.77;35.66
55410;BME280;41279;43.546;16.426;2022-08-11T06:58:48;52902.84;;;-146.77;35.77
55410;BME280;41279;43.546;16.426;2022-08-11T07:01:56;52914.84;;;-146.77;35.36
55410;BME280;41279;43.546;16.426;2022-08-11T07:04:39;52876.81;;;-146.77;35.37
55410;BME280;41279;43.546;16.426;2022-08-11T07:13:05;52900.84;;;-146.77;34.65
55410;BME280;41279;43.546;16.426;2022-08-11T07:15:53;52920.88;;;-146.77;34.12
55410;BME280;41279;43.546;16.426;2022-08-11T07:18:24;52942.88;;;-146.77;34.27
55410;BME280;41279;43.546;16.426;2022-08-11T07:24:12;52972.94;;;-146.77;34.12
55410;BME280;41279;43.546;16.426;2022-08-11T07:26:57;52932.88;;;-146.77;34.27
55410;BME280;41279;43.546;16.426;2022-08-11T07:29:45;52942.88;;;-146.77;33.48
55410;BME280;41279;43.546;16.426;2022-08-11T07:32:17;52952.91;;;-146.77;33.15
55410;BME280;41279;43.546;16.426;2022-08-11T07:34:50;52972.94;;;-146.77;32.86
55410;BME280;41279;43.546;16.426;2022-08-11T07:37:20;53002.97;;;-146.77;33.28
55410;BME280;41279;43.546;16.426;2022-08-11T07:39:48;52962.91;;;-146.77;32.98
55410;BME280;41279;43.546;16.426;2022-08-11T07:42:22;52974.94;;;-146.77;33.18
55410;BME280;41279;43.546;16.426;2022-08-11T07:44:51;53029.00;;;-146.77;32.23
55410;BME280;41279;43.546;16.426;2022-08-11T07:47:38;52956.91;;;-146.77;32.61
55410;BME280;41279;43.546;16.426;2022-08-11T07:50:22;52994.94;;;-146.77;32.29
55410;BME280;41279;43.546;16.426;2022-08-11T07:53:07;52988.94;;;-146.77;32.75
55410;BME280;41279;43.546;16.426;2022-08-11T07:55:33;52976.94;;;-146.77;31.98
55410;BME280;41279;43.546;16.426;2022-08-11T07:58:00;53006.97;;;-146.77;32.46
55410;BME280;41279;43.546;16.426;2022-08-11T08:00:55;53002.97;;;-146.77;32.06
55410;BME280;41279;43.546;16.426;2022-08-11T08:03:41;53053.03;;;-146.77;31.75
55410;BME280;41279;43.546;16.426;2022-08-11T08:06:27;53016.97;;;-146.77;31.69
55410;BME280;41279;43.546;16.426;2022-08-11T08:09:12;53006.97;;;-146.77;31.76
55410;BME280;41279;43.546;16.426;2022-08-11T08:12:01;53091.06;;;-146.77;30.96
55410;BME280;41279;43.546;16.426;2022-08-11T08:14:46;52992.94;;;-146.77;32.19
55410;BME280;41279;43.546;16.426;2022-08-11T08:17:31;53022.97;;;-146.77;31.53
55410;BME280;41279;43.546;16.426;2022-08-11T08:20:16;52986.94;;;-146.77;31.87
55410;BME280;41279;43.546;16.426;2022-08-11T08:22:51;53002.97;;;-146.77;31.78
55410;BME280;41279;43.546;16.426;2022-08-11T08:25:24;53063.03;;;-146.77;30.79
55410;BME280;41279;43.546;16.426;2022-08-11T08:27:51;53059.03;;;-146.77;31.81
55410;BME280;41279;43.546;16.426;2022-08-11T08:30:17;53020.97;;;-146.77;32.03
55410;BME280;41279;43.546;16.426;2022-08-11T08:33:02;53039.00;;;-146.77;32.39
55410;BME280;41279;43.546;16.426;2022-08-11T08:35:28;53010.97;;;-146.77;32.10
55410;BME280;41279;43.546;16.426;2022-08-11T08:37:55;53053.03;;;-146.77;32.85
55410;BME280;41279;43.546;16.426;2022-08-11T08:40:21;53059.03;;;-146.77;32.70
55410;BME280;41279;43.546;16.426;2022-08-11T08:42:56;53099.06;;;-146.77;32.89
55410;BME280;41279;43.546;16.426;2022-08-11T08:45:23;53014.97;;;-146.77;34.12
55410;BME280;41279;43.546;16.426;2022-08-11T08:48:03;52990.94;;;-146.77;35.17
55410;BME280;41279;43.546;16.426;2022-08-11T08:50:33;52962.91;;;-146.77;35.29
55410;BME280;41279;43.546;16.426;2022-08-11T08:53:22;52988.94;;;-146.77;34.80
55410;BME280;41279;43.546;16.426;2022-08-11T08:55:49;53014.97;;;-146.77;33.81
55410;BME280;41279;43.546;16.426;2022-08-11T08:58:18;52954.91;;;-146.77;33.49
55410;BME280;41279;43.546;16.426;2022-08-11T09:00:45;53006.97;;;-146.77;33.08
55410;BME280;41279;43.546;16.426;2022-08-11T09:03:12;53006.97;;;-146.77;32.54
55410;BME280;41279;43.546;16.426;2022-08-11T09:05:39;53010.97;;;-146.77;32.65
55410;BME280;41279;43.546;16.426;2022-08-11T09:08:05;52994.94;;;-146.77;32.59
55410;BME280;41279;43.546;16.426;2022-08-11T09:10:30;53037.00;;;-146.77;31.55
55410;BME280;41279;43.546;16.426;2022-08-11T09:12:58;53020.97;;;-146.77;31.43
55410;BME280;41279;43.546;16.426;2022-08-11T09:15:25;53020.97;;;-146.77;31.48
55410;BME280;41279;43.546;16.426;2022-08-11T09:17:56;53006.97;;;-146.77;32.23
55410;BME280;41279;43.546;16.426;2022-08-11T09:20:29;53091.06;;;-146.77;31.70
55410;BME280;41279;43.546;16.426;2022-08-11T09:23:01;53167.16;;;-146.77;31.42
55410;BME280;41279;43.546;16.426;2022-08-11T09:25:46;53139.13;;;-146.77;30.96
55410;BME280;41279;43.546;16.426;2022-08-11T09:28:32;53097.06;;;-146.77;32.05
55410;BME280;41279;43.546;16.426;2022-08-11T09:31:01;53043.00;;;-146.77;32.53
55410;BME280;41279;43.546;16.426;2022-08-11T09:33:29;53053.03;;;-146.77;31.89
55410;BME280;41279;43.546;16.426;2022-08-11T09:35:56;53014.97;;;-146.77;32.42
55410;BME280;41279;43.546;16.426;2022-08-11T09:38:25;53119.09;;;-146.77;32.00
55410;BME280;41279;43.546;16.426;2022-08-11T09:41:10;53097.06;;;-146.77;32.51
55410;BME280;41279;43.546;16.426;2022-08-11T09:43:39;53085.06;;;-146.77;33.23
55410;BME280;41279;43.546;16.426;2022-08-11T09:46:26;52980.94;;;-146.77;33.45
55410;BME280;41279;43.546;16.426;2022-08-11T09:48:57;53053.03;;;-146.77;33.74
55410;BME280;41279;43.546;16.426;2022-08-11T09:51:23;53077.03;;;-146.77;32.97
55410;BME280;41279;43.546;16.426;2022-08-11T09:53:50;53127.09;;;-146.77;33.42
55410;BME280;41279;43.546;16.426;2022-08-11T09:56:19;53101.06;;;-146.77;32.71
55410;BME280;41279;43.546;16.426;2022-08-11T09:59:04;53103.06;;;-146.77;33.31
55410;BME280;41279;43.546;16.426;2022-08-11T10:01:34;53133.13;;;-146.77;33.17
55410;BME280;41279;43.546;16.426;2022-08-11T10:04:12;53073.03;;;-146.77;32.67
55410;BME280;41279;43.546;16.426;2022-08-11T10:06:47;53121.09;;;-146.77;31.16
55410;BME280;41279;43.546;16.426;2022-08-11T10:09:38;53103.06;;;-146.77;31.39
55410;BME280;41279;43.546;16.426;2022-08-11T10:12:08;53103.06;;;-146.77;31.28
55410;BME280;41279;43.546;16.426;2022-08-11T10:14:37;53071.03;;;-146.77;32.09
55410;BME280;41279;43.546;16.426;2022-08-11T10:17:46;53103.06;;;-146.77;32.11
55410;BME280;41279;43.546;16.426;2022-08-11T10:20:33;53105.09;;;-146.77;30.91
55410;BME280;41279;43.546;16.426;2022-08-11T10:23:00;53121.09;;;-146.77;33.32
55410;BME280;41279;43.546;16.426;2022-08-11T10:25:45;53109.09;;;-146.77;31.58
55410;BME280;41279;43.546;16.426;2022-08-11T10:28:30;53141.13;;;-146.77;32.13
55410;BME280;41279;43.546;16.426;2022-08-11T10:30:58;53229.22;;;-146.77;31.24
55410;BME280;41279;43.546;16.426;2022-08-11T10:33:43;53103.06;;;-146.77;30.67
55410;BME280;41279;43.546;16.426;2022-08-11T10:36:40;53151.13;;;-146.77;30.20
55410;BME280;41279;43.546;16.426;2022-08-11T10:39:19;53087.06;;;-146.77;35.79
55410;BME280;41279;43.546;16.426;2022-08-11T10:41:46;53169.16;;;-146.77;36.07
55410;BME280;41279;43.546;16.426;2022-08-11T10:44:44;53357.38;;;-146.77;39.31
55410;BME280;41279;43.546;16.426;2022-08-11T10:47:12;53279.28;;;-146.77;35.69
55410;BME280;41279;43.546;16.426;2022-08-11T10:49:56;53315.34;;;-146.77;36.58
55410;BME280;41279;43.546;16.426;2022-08-11T10:52:41;53229.22;;;-146.77;38.59
55410;BME280;41279;43.546;16.426;2022-08-11T10:55:27;53201.19;;;-146.77;41.74
55410;BME280;41279;43.546;16.426;2022-08-11T10:58:11;53179.16;;;-146.77;38.35
55410;BME280;41279;43.546;16.426;2022-08-11T11:00:56;53207.22;;;-146.77;39.70
55410;BME280;41279;43.546;16.426;2022-08-11T11:03:28;53183.19;;;-146.77;35.51
55410;BME280;41279;43.546;16.426;2022-08-11T11:06:07;53185.19;;;-146.77;37.92
55410;BME280;41279;43.546;16.426;2022-08-11T11:08:39;53219.22;;;-146.77;39.65
55410;BME280;41279;43.546;16.426;2022-08-11T11:11:25;53309.34;;;-146.77;40.67
55410;BME280;41279;43.546;16.426;2022-08-11T11:14:15;53195.19;;;-146.77;36.46
55410;BME280;41279;43.546;16.426;2022-08-11T11:17:02;53165.16;;;-146.77;39.47
55410;BME280;41279;43.546;16.426;2022-08-11T11:19:39;53243.25;;;-146.77;38.99
55410;BME280;41279;43.546;16.426;2022-08-11T11:22:06;53407.44;;;-146.77;49.00
55410;BME280;41279;43.546;16.426;2022-08-11T11:25:31;53171.16;;;-146.77;41.21
55410;BME280;41279;43.546;16.426;2022-08-11T11:34:00;53035.00;;;-146.77;34.90
55410;BME280;41279;43.546;16.426;2022-08-11T11:36:47;53135.13;;;-146.77;35.44
55410;BME280;41279;43.546;16.426;2022-08-11T11:39:22;53177.16;;;-146.77;38.05
55410;BME280;41279;43.546;16.426;2022-08-11T11:41:51;53161.16;;;-146.77;37.90
55410;BME280;41279;43.546;16.426;2022-08-11T11:44:18;53117.09;;;-146.77;36.78
55410;BME280;41279;43.546;16.426;2022-08-11T11:46:45;53081.06;;;-146.77;39.86
55410;BME280;41279;43.546;16.426;2022-08-11T11:49:12;53177.16;;;-146.77;42.97
55410;BME280;41279;43.546;16.426;2022-08-11T11:51:39;53209.22;;;-146.77;40.29
55410;BME280;41279;43.546;16.426;2022-08-11T11:54:05;53207.22;;;-146.77;43.43
55410;BME280;41279;43.546;16.426;2022-08-11T11:56:32;53291.31;;;-146.77;44.74
55410;BME280;41279;43.546;16.426;2022-08-11T11:58:58;53301.31;;;-146.77;45.85
55410;BME280;41279;43.546;16.426;2022-08-11T12:01:43;53245.25;;;-146.77;39.72
55410;BME280;41279;43.546;16.426;2022-08-11T12:04:10;53295.31;;;-146.77;41.97
55410;BME280;41279;43.546;16.426;2022-08-11T12:06:37;53441.50;;;-146.77;46.15
55410;BME280;41279;43.546;16.426;2022-08-11T12:09:04;53423.47;;;-146.77;46.56
55410;BME280;41279;43.546;16.426;2022-08-11T12:11:30;53623.72;;;-146.77;53.69
55410;BME280;41279;43.546;16.426;2022-08-11T12:14:18;53581.69;;;-146.77;53.93
55410;BME280;41279;43.546;16.426;2022-08-11T12:16:46;53453.50;;;-146.77;51.76
55410;BME280;41279;43.546;16.426;2022-08-11T12:19:16;53469.53;;;-146.77;54.40
55410;BME280;41279;43.546;16.426;2022-08-11T12:21:43;53387.44;;;-146.77;50.15
55410;BME280;41279;43.546;16.426;2022-08-11T12:24:29;53281.28;;;-146.77;48.46
55410;BME280;41279;43.546;16.426;2022-08-11T12:27:13;53219.22;;;-146.77;44.35
55410;BME280;41279;43.546;16.426;2022-08-11T12:29:56;53285.31;;;-146.77;42.36
55410;BME280;41279;43.546;16.426;2022-08-11T12:32:26;53213.22;;;-146.77;47.24
55410;BME280;41279;43.546;16.426;2022-08-11T12:34:53;53275.28;;;-146.77;50.73
55410;BME280;41279;43.546;16.426;2022-08-11T12:37:26;53443.50;;;-146.77;58.10
55410;BME280;41279;43.546;16.426;2022-08-11T12:40:01;53479.53;;;-146.77;61.64
55410;BME280;41279;43.546;16.426;2022-08-11T12:42:46;53335.38;;;-146.77;53.07
55410;BME280;41279;43.546;16.426;2022-08-11T12:45:31;53287.31;;;-146.77;52.17
55410;BME280;41279;43.546;16.426;2022-08-11T12:48:06;53167.16;;;-146.77;47.93
55410;BME280;41279;43.546;16.426;2022-08-11T12:50:55;53241.25;;;-146.77;40.16
55410;BME280;41279;43.546;16.426;2022-08-11T12:53:51;53179.16;;;-146.77;40.88
55410;BME280;41279;43.546;16.426;2022-08-11T12:56:18;53223.22;;;-146.77;41.10
55410;BME280;41279;43.546;16.426;2022-08-11T12:59:04;53171.16;;;-146.77;37.42
55410;BME280;41279;43.546;16.426;2022-08-11T13:01:49;53143.13;;;-146.77;36.48
55410;BME280;41279;43.546;16.426;2022-08-11T13:04:33;53131.13;;;-146.77;35.82
55410;BME280;41279;43.546;16.426;2022-08-11T13:07:21;53141.13;;;-146.77;36.66
55410;BME280;41279;43.546;16.426;2022-08-11T13:09:47;53135.13;;;-146.77;41.04
55410;BME280;41279;43.546;16.426;2022-08-11T13:12:22;53139.13;;;-146.77;43.10
55410;BME280;41279;43.546;16.426;2022-08-11T13:15:09;53151.13;;;-146.77;42.41
55410;BME280;41279;43.546;16.426;2022-08-11T13:17:37;53121.09;;;-146.77;41.91
55410;BME280;41279;43.546;16.426;2022-08-11T13:20:03;53241.25;;;-146.77;44.22
55410;BME280;41279;43.546;16.426;2022-08-11T13:22:30;53225.22;;;-146.77;46.77
55410;BME280;41279;43.546;16.426;2022-08-11T13:24:56;53223.22;;;-146.77;38.37
55410;BME280;41279;43.546;16.426;2022-08-11T13:27:23;53263.28;;;-146.77;44.62
55410;BME280;41279;43.546;16.426;2022-08-11T13:29:50;53343.38;;;-146.77;44.05
55410;BME280;41279;43.546;16.426;2022-08-11T13:32:38;53503.56;;;-146.77;54.29
55410;BME280;41279;43.546;16.426;2022-08-11T13:35:04;53561.66;;;-146.77;59.63
55410;BME280;41279;43.546;16.426;2022-08-11T13:37:30;53509.59;;;-146.77;59.20
55410;BME280;41279;43.546;16.426;2022-08-11T13:40:00;53555.66;;;-146.77;60.35
55410;BME280;41279;43.546;16.426;2022-08-11T13:42:27;53515.59;;;-146.77;62.61
55410;BME280;41279;43.546;16.426;2022-08-11T13:44:53;53487.56;;;-146.77;58.04
55410;BME280;41279;43.546;16.426;2022-08-11T13:47:21;53527.59;;;-146.77;57.78
55410;BME280;41279;43.546;16.426;2022-08-11T13:49:48;53693.81;;;-146.77;66.22
55410;BME280;41279;43.546;16.426;2022-08-11T13:52:15;54006.25;;;-146.77;74.95
55410;BME280;41279;43.546;16.426;2022-08-11T13:54:42;53387.44;;;-146.77;62.23
55410;BME280;41279;43.546;16.426;2022-08-11T13:57:11;53161.16;;;-146.77;49.73
55410;BME280;41279;43.546;16.426;2022-08-11T13:59:39;53211.22;;;-146.77;45.06
55410;BME280;41279;43.546;16.426;2022-08-11T14:02:12;53213.22;;;-146.77;43.84
55410;BME280;41279;43.546;16.426;2022-08-11T14:04:47;53327.34;;;-146.77;58.49
55410;BME280;41279;43.546;16.426;2022-08-11T14:07:19;53663.78;;;-146.77;65.15
55410;BME280;41279;43.546;16.426;2022-08-11T14:09:47;53411.47;;;-146.77;58.09
55410;BME280;41279;43.546;16.426;2022-08-11T14:12:24;53395.44;;;-146.77;56.60
55410;BME280;41279;43.546;16.426;2022-08-11T14:15:21;53419.47;;;-146.77;54.99
55410;BME280;41279;43.546;16.426;2022-08-11T14:17:57;53205.19;;;-146.77;43.45
55410;BME280;41279;43.546;16.426;2022-08-11T14:20:32;53467.53;;;-146.77;59.53
55410;BME280;41279;43.546;16.426;2022-08-11T14:23:22;53503.56;;;-146.77;57.18
55410;BME280;41279;43.546;16.426;2022-08-11T14:25:50;53285.31;;;-146.77;51.66
55410;BME280;41279;43.546;16.426;2022-08-11T14:28:34;53319.34;;;-146.77;50.30
55410;BME280;41279;43.546;16.426;2022-08-11T14:31:02;53393.44;;;-146.77;41.89
55410;BME280;41279;43.546;16.426;2022-08-11T14:33:33;53465.53;;;-146.77;43.33
55410;BME280;41279;43.546;16.426;2022-08-11T14:36:01;53593.69;;;-146.77;46.68
55410;BME280;41279;43.546;16.426;2022-08-11T14:38:27;53563.66;;;-146.77;45.96
55410;BME280;41279;43.546;16.426;2022-08-11T14:40:53;53661.78;;;-146.77;53.55
55410;BME280;41279;43.546;16.426;2022-08-11T14:43:37;53541.63;;;-146.77;50.48
55410;BME280;41279;43.546;16.426;2022-08-11T14:46:22;53557.66;;;-146.77;53.69
55410;BME280;41279;43.546;16.426;2022-08-11T14:49:06;53503.56;;;-146.77;56.45
55410;BME280;41279;43.546;16.426;2022-08-11T14:51:32;53363.41;;;-146.77;54.50
55410;BME280;41279;43.546;16.426;2022-08-11T14:53:59;53197.19;;;-146.77;46.44
55410;BME280;41279;43.546;16.426;2022-08-11T14:56:44;53293.31;;;-146.77;50.93
55410;BME280;41279;43.546;16.426;2022-08-11T14:59:11;53453.50;;;-146.77;58.88
55410;BME280;41279;43.546;16.426;2022-08-11T15:01:37;53517.59;;;-146.77;60.06
55410;BME280;41279;43.546;16.426;2022-08-11T15:04:22;53349.38;;;-146.77;50.21
55410;BME280;41279;43.546;16.426;2022-08-11T15:06:48;53433.47;;;-146.77;49.93
55410;BME280;41279;43.546;16.426;2022-08-11T15:09:15;53423.47;;;-146.77;51.60
55410;BME280;41279;43.546;16.426;2022-08-11T15:11:42;53497.56;;;-146.77;51.34
55410;BME280;41279;43.546;16.426;2022-08-11T15:14:26;53535.63;;;-146.77;50.26
55410;BME280;41279;43.546;16.426;2022-08-11T15:17:10;53563.66;;;-146.77;53.25
55410;BME280;41279;43.546;16.426;2022-08-11T15:19:40;53339.38;;;-146.77;47.68
55410;BME280;41279;43.546;16.426;2022-08-11T15:22:24;53319.34;;;-146.77;48.22
55410;BME280;41279;43.546;16.426;2022-08-11T15:25:08;53301.31;;;-146.77;51.26
55410;BME280;41279;43.546;16.426;2022-08-11T15:27:34;53475.53;;;-146.77;54.57
55410;BME280;41279;43.546;16.426;2022-08-11T15:30:18;53767.94;;;-146.77;61.17
55410;BME280;41279;43.546;16.426;2022-08-11T15:33:07;53323.34;;;-146.77;52.89
55410;BME280;41279;43.546;16.426;2022-08-11T15:35:53;53271.28;;;-146.77;54.36
55410;BME280;41279;43.546;16.426;2022-08-11T15:38:48;53461.53;;;-146.77;60.96
55410;BME280;41279;43.546;16.426;2022-08-11T15:41:17;53369.41;;;-146.77;61.61
55410;BME280;41279;43.546;16.426;2022-08-11T15:44:05;53491.56;;;-146.77;65.64
55410;BME280;41279;43.546;16.426;2022-08-11T15:46:57;53499.56;;;-146.77;67.87
55410;BME280;41279;43.546;16.426;2022-08-11T15:49:39;53489.56;;;-146.77;65.66
55410;BME280;41279;43.546;16.426;2022-08-11T15:52:07;53369.41;;;-146.77;62.62
55410;BME280;41279;43.546;16.426;2022-08-11T15:54:39;53303.31;;;-146.77;58.46
55410;BME280;41279;43.546;16.426;2022-08-11T15:57:06;53239.25;;;-146.77;53.75
55410;BME280;41279;43.546;16.426;2022-08-11T15:59:34;53225.22;;;-146.77;55.00
55410;BME280;41279;43.546;16.426;2022-08-11T16:02:20;53259.28;;;-146.77;57.09
55410;BME280;41279;43.546;16.426;2022-08-11T16:04:51;53253.25;;;-146.77;56.83
55410;BME280;41279;43.546;16.426;2022-08-11T16:07:20;53413.47;;;-146.77;62.55
55410;BME280;41279;43.546;16.426;2022-08-11T16:10:17;53115.09;;;-146.77;48.79
55410;BME280;41279;43.546;16.426;2022-08-11T16:13:05;53189.19;;;-146.77;51.36
55410;BME280;41279;43.546;16.426;2022-08-11T16:15:33;53251.25;;;-146.77;50.63